sensor_id;sensor_type;location;lat;lon;timestamp;temperature;humidity
31387;DHT22;69978;50.096;8.448;2023-08-31T00:00:29;14.00;99.90
31387;DHT22;69978;50.096;8.448;2023-08-31T00:02:55;13.90;99.90
31387;DHT22;69978;50.096;8.448;2023-08-31T00:05:21;13.90;99.90
31387;DHT22;69978;50.096;8.448;2023-08-31T00:07:46;14.00;99.90
31387;DHT22;69978;50.096;8.448;2023-08-31T00:10:12;14.00;99.90
31387;DHT22;69978;50.096;8.448;2023-08-31T00:12:37;13.90;99.90
31387;DHT22;69978;50.096;8.448;2023-08-31T00:15:03;13.90;99.90
31387;DHT22;69978;50.096;8.448;2023-08-31T00:17:32;13.90;99.90
31387;DHT22;69978;50.096;8.448;2023-08-31T00:19:58;13.90;99.90
31387;DHT22;69978;50.096;8.448;2023-08-31T00:22:23;13.90;99.90
31387;DHT22;69978;50.096;8.448;2023-08-31T00:24:49;13.90;99.90
31387;DHT22;69978;50.096;8.448;2023-08-31T00:27:16;13.90;99.90
31387;DHT22;69978;50.096;8.448;2023-08-31T00:29:43;13.90;99.90
31387;DHT22;69978;50.096;8.448;2023-08-31T00:32:11;13.90;99.90
31387;DHT22;69978;50.096;8.448;2023-08-31T00:34:36;13.90;99.90
31387;DHT22;69978;50.096;8.448;2023-08-31T00:37:02;13.90;99.90
31387;DHT22;69978;50.096;8.448;2023-08-31T00:39:28;14.00;99.90
31387;DHT22;69978;50.096;8.448;2023-08-31T00:41:54;14.00;99.90
31387;DHT22;69978;50.096;8.448;2023-08-31T00:44:19;14.10;99.90
31387;DHT22;69978;50.096;8.448;2023-08-31T00:46:45;14.10;99.90
31387;DHT22;69978;50.096;8.448;2023-08-31T00:49:11;14.10;99.90
31387;DHT22;69978;50.096;8.448;2023-08-31T00:51:37;14.10;99.90
31387;DHT22;69978;50.096;8.448;2023-08-31T00:54:03;14.20;99.90
31387;DHT22;69978;50.096;8.448;2023-08-31T00:56:31;14.20;99.90
31387;DHT22;69978;50.096;8.448;2023-08-31T00:58:56;14.20;99.90
31387;DHT22;69978;50.096;8.448;2023-08-31T01:01:57;14.20;99.90
31387;DHT22;69978;50.096;8.448;2023-08-31T01:04:48;14.20;99.90
31387;DHT22;69978;50.096;8.448;2023-08-31T01:10:04;14.20;99.90
31387;DHT22;69978;50.096;8.448;2023-08-31T01:15:38;14.20;99.90
31387;DHT22;69978;50.096;8.448;2023-08-31T01:18:06;14.10;99.90
31387;DHT22;69978;50.096;8.448;2023-08-31T01:20:38;14.10;99.90
31387;DHT22;69978;50.096;8.448;2023-08-31T01:23:13;14.10;99.90
31387;DHT22;69978;50.096;8.448;2023-08-31T01:25:41;14.00;99.90
31387;DHT22;69978;50.096;8.448;2023-08-31T01:28:09;14.00;99.90
31387;DHT22;69978;50.096;8.448;2023-08-31T01:30:35;14.00;99.90
31387;DHT22;69978;50.096;8.448;2023-08-31T01:33:01;14.00;99.90
31387;DHT22;69978;50.096;8.448;2023-08-31T01:35:30;14.00;99.90
31387;DHT22;69978;50.096;8.448;2023-08-31T01:37:59;14.00;99.90
31387;DHT22;69978;50.096;8.448;2023-08-31T01:40:43;14.00;99.90
31387;DHT22;69978;50.096;8.448;2023-08-31T01:43:10;14.00;99.90
31387;DHT22;69978;50.096;8.448;2023-08-31T01:45:37;13.90;99.90
31387;DHT22;69978;50.096;8.448;2023-08-31T01:48:06;14.00;99.90
31387;DHT22;69978;50.096;8.448;2023-08-31T01:50:31;14.00;99.90
31387;DHT22;69978;50.096;8.448;2023-08-31T01:52:57;14.10;99.90
31387;DHT22;69978;50.096;8.448;2023-08-31T01:55:24;14.00;99.90
31387;DHT22;69978;50.096;8.448;2023-08-31T01:57:50;14.00;99.90
31387;DHT22;69978;50.096;8.448;2023-08-31T02:00:18;14.00;99.90
31387;DHT22;69978;50.096;8.448;2023-08-31T02:02:44;14.00;99.90
31387;DHT22;69978;50.096;8.448;2023-08-31T02:05:09;14.10;99.90
31387;DHT22;69978;50.096;8.448;2023-08-31T02:07:35;14.10;99.90
31387;DHT22;69978;50.096;8.448;2023-08-31T02:10:01;14.10;99.90
31387;DHT22;69978;50.096;8.448;2023-08-31T02:12:27;14.10;99.90
31387;DHT22;69978;50.096;8.448;2023-08-31T02:14:52;14.00;99.90
31387;DHT22;69978;50.096;8.448;2023-08-31T02:17:18;14.00;99.90
31387;DHT22;69978;50.096;8.448;2023-08-31T02:19:44;14.00;99.90
31387;DHT22;69978;50.096;8.448;2023-08-31T02:22:10;13.90;99.90
31387;DHT22;69978;50.096;8.448;2023-08-31T02:24:36;14.00;99.90
31387;DHT22;69978;50.096;8.448;2023-08-31T02:27:01;14.00;99.90
31387;DHT22;69978;50.096;8.448;2023-08-31T02:29:27;14.00;99.90
31387;DHT22;69978;50.096;8.448;2023-08-31T02:31:53;14.00;99.90
31387;DHT22;69978;50.096;8.448;2023-08-31T02:34:19;14.00;99.90
31387;DHT22;69978;50.096;8.448;2023-08-31T02:36:44;14.00;99.90
31387;DHT22;69978;50.096;8.448;2023-08-31T02:39:10;14.00;99.90
31387;DHT22;69978;50.096;8.448;2023-08-31T02:41:36;14.00;99.90
31387;DHT22;69978;50.096;8.448;2023-08-31T02:44:01;14.00;99.90
31387;DHT22;69978;50.096;8.448;2023-08-31T02:46:27;14.00;99.90
31387;DHT22;69978;50.096;8.448;2023-08-31T02:48:53;14.00;99.90
31387;DHT22;69978;50.096;8.448;2023-08-31T02:51:19;14.00;99.90
31387;DHT22;69978;50.096;8.448;2023-08-31T02:53:44;13.90;99.90
31387;DHT22;69978;50.096;8.448;2023-08-31T02:56:10;14.00;99.90
31387;DHT22;69978;50.096;8.448;2023-08-31T02:58:35;13.90;99.90
31387;DHT22;69978;50.096;8.448;2023-08-31T03:01:12;13.90;99.90
31387;DHT22;69978;50.096;8.448;2023-08-31T03:03:38;14.00;99.90
31387;DHT22;69978;50.096;8.448;2023-08-31T03:06:06;13.90;99.90
31387;DHT22;69978;50.096;8.448;2023-08-31T03:08:33;13.90;99.90
31387;DHT22;69978;50.096;8.448;2023-08-31T03:10:59;13.90;99.90
31387;DHT22;69978;50.096;8.448;2023-08-31T03:13:25;13.80;99.90
31387;DHT22;69978;50.096;8.448;2023-08-31T03:15:50;13.80;99.90
31387;DHT22;69978;50.096;8.448;2023-08-31T03:18:16;13.80;99.90
31387;DHT22;69978;50.096;8.448;2023-08-31T03:20:42;13.80;99.90
31387;DHT22;69978;50.096;8.448;2023-08-31T03:23:07;13.80;99.90
31387;DHT22;69978;50.096;8.448;2023-08-31T03:25:34;13.80;99.90
31387;DHT22;69978;50.096;8.448;2023-08-31T03:28:00;13.80;99.90
31387;DHT22;69978;50.096;8.448;2023-08-31T03:30:25;13.80;99.90
31387;DHT22;69978;50.096;8.448;2023-08-31T03:32:51;13.80;99.90
31387;DHT22;69978;50.096;8.448;2023-08-31T03:35:17;13.80;99.90
31387;DHT22;69978;50.096;8.448;2023-08-31T03:37:42;13.80;99.90
31387;DHT22;69978;50.096;8.448;2023-08-31T03:40:08;13.80;99.90
31387;DHT22;69978;50.096;8.448;2023-08-31T03:42:34;13.80;99.90
31387;DHT22;69978;50.096;8.448;2023-08-31T03:45:00;13.70;99.90
31387;DHT22;69978;50.096;8.448;2023-08-31T03:47:27;13.70;99.90
31387;DHT22;69978;50.096;8.448;2023-08-31T03:49:52;13.70;99.90
31387;DHT22;69978;50.096;8.448;2023-08-31T03:52:18;13.70;99.90
31387;DHT22;69978;50.096;8.448;2023-08-31T03:54:44;13.70;99.90
31387;DHT22;69978;50.096;8.448;2023-08-31T03:57:09;13.70;99.90
31387;DHT22;69978;50.096;8.448;2023-08-31T03:59:35;13.60;99.90
31387;DHT22;69978;50.096;8.448;2023-08-31T04:02:00;13.60;99.90
31387;DHT22;69978;50.096;8.448;2023-08-31T04:04:26;13.60;99.90
31387;DHT22;69978;50.096;8.448;2023-08-31T04:06:51;13.60;99.90
31387;DHT22;69978;50.096;8.448;2023-08-31T04:09:17;13.50;99.90
31387;DHT22;69978;50.096;8.448;2023-08-31T04:11:42;13.50;99.90
31387;DHT22;69978;50.096;8.448;2023-08-31T04:14:08;13.50;99.90
31387;DHT22;69978;50.096;8.448;2023-08-31T04:16:33;13.60;99.90
31387;DHT22;69978;50.096;8.448;2023-08-31T04:18:59;13.50;99.90
31387;DHT22;69978;50.096;8.448;2023-08-31T04:21:25;13.50;99.90
31387;DHT22;69978;50.096;8.448;2023-08-31T04:23:51;13.50;99.90
31387;DHT22;69978;50.096;8.448;2023-08-31T04:26:16;13.50;99.90
31387;DHT22;69978;50.096;8.448;2023-08-31T04:31:10;13.40;99.90
31387;DHT22;69978;50.096;8.448;2023-08-31T04:33:37;13.40;99.90
31387;DHT22;69978;50.096;8.448;2023-08-31T04:36:04;13.40;99.90
31387;DHT22;69978;50.096;8.448;2023-08-31T04:38:34;13.40;99.90
31387;DHT22;69978;50.096;8.448;2023-08-31T04:41:00;13.40;99.90
31387;DHT22;69978;50.096;8.448;2023-08-31T04:43:26;13.30;99.90
31387;DHT22;69978;50.096;8.448;2023-08-31T04:45:53;13.30;99.90
31387;DHT22;69978;50.096;8.448;2023-08-31T04:48:18;13.30;99.90
31387;DHT22;69978;50.096;8.448;2023-08-31T04:50:44;13.30;99.90
31387;DHT22;69978;50.096;8.448;2023-08-31T04:53:09;13.30;99.90
31387;DHT22;69978;50.096;8.448;2023-08-31T04:55:35;13.30;99.90
31387;DHT22;69978;50.096;8.448;2023-08-31T04:58:01;13.20;99.90
31387;DHT22;69978;50.096;8.448;2023-08-31T05:00:26;13.20;99.90
31387;DHT22;69978;50.096;8.448;2023-08-31T05:02:52;13.20;99.90
31387;DHT22;69978;50.096;8.448;2023-08-31T05:05:17;13.20;99.90
31387;DHT22;69978;50.096;8.448;2023-08-31T05:07:46;13.20;99.90
31387;DHT22;69978;50.096;8.448;2023-08-31T05:10:11;13.20;99.90
31387;DHT22;69978;50.096;8.448;2023-08-31T05:12:37;13.10;99.90
31387;DHT22;69978;50.096;8.448;2023-08-31T05:15:03;13.20;99.90
31387;DHT22;69978;50.096;8.448;2023-08-31T05:17:29;13.20;99.90
31387;DHT22;69978;50.096;8.448;2023-08-31T05:19:55;13.10;99.90
31387;DHT22;69978;50.096;8.448;2023-08-31T05:22:21;13.10;99.90
31387;DHT22;69978;50.096;8.448;2023-08-31T05:24:47;13.10;99.90
31387;DHT22;69978;50.096;8.448;2023-08-31T05:27:13;13.10;99.90
31387;DHT22;69978;50.096;8.448;2023-08-31T05:29:38;13.10;99.90
31387;DHT22;69978;50.096;8.448;2023-08-31T05:32:04;13.10;99.90
31387;DHT22;69978;50.096;8.448;2023-08-31T05:34:30;13.10;99.90
31387;DHT22;69978;50.096;8.448;2023-08-31T05:36:58;13.10;99.90
31387;DHT22;69978;50.096;8.448;2023-08-31T05:39:24;13.10;99.90
31387;DHT22;69978;50.096;8.448;2023-08-31T05:41:50;13.20;99.90
31387;DHT22;69978;50.096;8.448;2023-08-31T05:44:16;13.20;99.90
31387;DHT22;69978;50.096;8.448;2023-08-31T05:46:42;13.20;99.90
31387;DHT22;69978;50.096;8.448;2023-08-31T05:49:08;13.20;99.90
31387;DHT22;69978;50.096;8.448;2023-08-31T05:51:34;13.20;99.90
31387;DHT22;69978;50.096;8.448;2023-08-31T05:54:00;13.20;99.90
31387;DHT22;69978;50.096;8.448;2023-08-31T05:56:25;13.20;99.90
31387;DHT22;69978;50.096;8.448;2023-08-31T05:58:51;13.30;99.90
31387;DHT22;69978;50.096;8.448;2023-08-31T06:01:20;13.30;99.90
31387;DHT22;69978;50.096;8.448;2023-08-31T06:03:47;13.30;99.90
31387;DHT22;69978;50.096;8.448;2023-08-31T06:06:13;13.30;99.90
31387;DHT22;69978;50.096;8.448;2023-08-31T06:08:39;13.30;99.90
31387;DHT22;69978;50.096;8.448;2023-08-31T06:11:04;13.40;99.90
31387;DHT22;69978;50.096;8.448;2023-08-31T06:13:31;13.40;99.90
31387;DHT22;69978;50.096;8.448;2023-08-31T06:15:56;13.50;99.90
31387;DHT22;69978;50.096;8.448;2023-08-31T06:18:23;13.50;99.90
31387;DHT22;69978;50.096;8.448;2023-08-31T06:20:49;13.50;99.90
31387;DHT22;69978;50.096;8.448;2023-08-31T06:23:15;13.50;99.90
31387;DHT22;69978;50.096;8.448;2023-08-31T06:25:40;13.60;99.90
31387;DHT22;69978;50.096;8.448;2023-08-31T06:28:06;13.60;99.90
31387;DHT22;69978;50.096;8.448;2023-08-31T06:30:34;13.60;99.90
31387;DHT22;69978;50.096;8.448;2023-08-31T06:33:00;13.60;99.90
31387;DHT22;69978;50.096;8.448;2023-08-31T06:35:26;13.70;99.90
31387;DHT22;69978;50.096;8.448;2023-08-31T06:37:51;13.70;99.90
31387;DHT22;69978;50.096;8.448;2023-08-31T06:40:17;13.70;99.90
31387;DHT22;69978;50.096;8.448;2023-08-31T06:42:43;13.70;99.90
31387;DHT22;69978;50.096;8.448;2023-08-31T06:45:09;13.80;99.90
31387;DHT22;69978;50.096;8.448;2023-08-31T06:47:35;13.80;99.90
31387;DHT22;69978;50.096;8.448;2023-08-31T06:50:01;13.80;99.90
31387;DHT22;69978;50.096;8.448;2023-08-31T06:52:27;13.80;99.90
31387;DHT22;69978;50.096;8.448;2023-08-31T06:54:53;13.80;99.90
31387;DHT22;69978;50.096;8.448;2023-08-31T06:57:21;13.90;99.90
31387;DHT22;69978;50.096;8.448;2023-08-31T06:59:47;13.90;99.90
31387;DHT22;69978;50.096;8.448;2023-08-31T07:02:13;13.90;99.90
31387;DHT22;69978;50.096;8.448;2023-08-31T07:04:39;14.00;99.90
31387;DHT22;69978;50.096;8.448;2023-08-31T07:07:06;14.00;99.90
31387;DHT22;69978;50.096;8.448;2023-08-31T07:09:31;14.00;99.90
31387;DHT22;69978;50.096;8.448;2023-08-31T07:11:57;14.00;99.90
31387;DHT22;69978;50.096;8.448;2023-08-31T07:14:23;14.00;99.90
31387;DHT22;69978;50.096;8.448;2023-08-31T07:16:49;14.10;99.90
31387;DHT22;69978;50.096;8.448;2023-08-31T07:19:15;14.10;99.90
31387;DHT22;69978;50.096;8.448;2023-08-31T07:21:41;14.20;99.90
31387;DHT22;69978;50.096;8.448;2023-08-31T07:24:06;14.30;99.90
31387;DHT22;69978;50.096;8.448;2023-08-31T07:26:32;14.30;99.90
31387;DHT22;69978;50.096;8.448;2023-08-31T07:29:00;14.40;99.90
31387;DHT22;69978;50.096;8.448;2023-08-31T07:31:26;14.50;99.90
31387;DHT22;69978;50.096;8.448;2023-08-31T07:33:53;14.60;99.90
31387;DHT22;69978;50.096;8.448;2023-08-31T07:36:19;14.60;99.90
31387;DHT22;69978;50.096;8.448;2023-08-31T07:38:44;14.60;99.90
31387;DHT22;69978;50.096;8.448;2023-08-31T07:41:10;14.80;99.90
31387;DHT22;69978;50.096;8.448;2023-08-31T07:43:36;14.80;99.90
31387;DHT22;69978;50.096;8.448;2023-08-31T07:46:01;14.90;99.90
31387;DHT22;69978;50.096;8.448;2023-08-31T07:48:27;14.90;99.90
31387;DHT22;69978;50.096;8.448;2023-08-31T07:50:52;15.00;99.90
31387;DHT22;69978;50.096;8.448;2023-08-31T07:53:18;15.00;99.90
31387;DHT22;69978;50.096;8.448;2023-08-31T07:55:51;15.00;99.90
31387;DHT22;69978;50.096;8.448;2023-08-31T07:58:17;15.00;99.90
31387;DHT22;69978;50.096;8.448;2023-08-31T08:00:43;15.00;99.90
31387;DHT22;69978;50.096;8.448;2023-08-31T08:03:08;15.10;99.90
31387;DHT22;69978;50.096;8.448;2023-08-31T08:05:34;15.10;99.90
31387;DHT22;69978;50.096;8.448;2023-08-31T08:08:00;15.20;99.90
31387;DHT22;69978;50.096;8.448;2023-08-31T08:10:25;15.30;99.90
31387;DHT22;69978;50.096;8.448;2023-08-31T08:12:51;15.50;99.90
31387;DHT22;69978;50.096;8.448;2023-08-31T08:15:16;15.70;99.90
31387;DHT22;69978;50.096;8.448;2023-08-31T08:17:42;15.90;99.90
31387;DHT22;69978;50.096;8.448;2023-08-31T08:20:08;16.10;99.90
31387;DHT22;69978;50.096;8.448;2023-08-31T08:22:36;16.20;99.90
31387;DHT22;69978;50.096;8.448;2023-08-31T08:25:01;16.30;99.90
31387;DHT22;69978;50.096;8.448;2023-08-31T08:27:28;16.30;99.90
31387;DHT22;69978;50.096;8.448;2023-08-31T08:29:53;16.40;99.90
31387;DHT22;69978;50.096;8.448;2023-08-31T08:32:19;16.50;99.90
31387;DHT22;69978;50.096;8.448;2023-08-31T08:34:44;16.60;99.90
31387;DHT22;69978;50.096;8.448;2023-08-31T08:37:10;16.70;99.90
31387;DHT22;69978;50.096;8.448;2023-08-31T08:39:35;16.70;99.90
31387;DHT22;69978;50.096;8.448;2023-08-31T08:42:04;16.80;99.90
31387;DHT22;69978;50.096;8.448;2023-08-31T08:44:33;16.90;99.90
31387;DHT22;69978;50.096;8.448;2023-08-31T08:47:02;16.90;99.90
31387;DHT22;69978;50.096;8.448;2023-08-31T08:49:30;16.70;99.90
31387;DHT22;69978;50.096;8.448;2023-08-31T08:51:58;16.50;99.90
31387;DHT22;69978;50.096;8.448;2023-08-31T08:54:24;16.40;99.90
31387;DHT22;69978;50.096;8.448;2023-08-31T08:56:50;16.50;99.90
31387;DHT22;69978;50.096;8.448;2023-08-31T08:59:15;16.50;99.90
31387;DHT22;69978;50.096;8.448;2023-08-31T09:01:41;16.40;99.90
31387;DHT22;69978;50.096;8.448;2023-08-31T09:04:09;16.30;99.90
31387;DHT22;69978;50.096;8.448;2023-08-31T09:06:35;16.40;99.90
31387;DHT22;69978;50.096;8.448;2023-08-31T09:09:01;16.40;99.90
31387;DHT22;69978;50.096;8.448;2023-08-31T09:11:27;16.50;99.90
31387;DHT22;69978;50.096;8.448;2023-08-31T09:13:53;16.60;99.90
31387;DHT22;69978;50.096;8.448;2023-08-31T09:16:28;16.70;99.90
31387;DHT22;69978;50.096;8.448;2023-08-31T09:18:55;16.70;99.90
31387;DHT22;69978;50.096;8.448;2023-08-31T09:21:21;16.80;99.90
31387;DHT22;69978;50.096;8.448;2023-08-31T09:23:56;16.90;99.90
31387;DHT22;69978;50.096;8.448;2023-08-31T09:26:26;17.20;99.90
31387;DHT22;69978;50.096;8.448;2023-08-31T09:28:52;17.40;99.90
31387;DHT22;69978;50.096;8.448;2023-08-31T09:31:18;17.80;99.90
31387;DHT22;69978;50.096;8.448;2023-08-31T09:33:52;18.00;99.90
31387;DHT22;69978;50.096;8.448;2023-08-31T09:36:20;18.30;99.90
31387;DHT22;69978;50.096;8.448;2023-08-31T09:38:46;18.30;99.90
31387;DHT22;69978;50.096;8.448;2023-08-31T09:44:28;18.70;99.90
31387;DHT22;69978;50.096;8.448;2023-08-31T09:46:54;18.80;99.90
31387;DHT22;69978;50.096;8.448;2023-08-31T09:49:21;19.00;99.90
31387;DHT22;69978;50.096;8.448;2023-08-31T09:51:49;19.10;99.90
31387;DHT22;69978;50.096;8.448;2023-08-31T09:54:21;19.20;99.90
31387;DHT22;69978;50.096;8.448;2023-08-31T09:56:53;19.30;99.90
31387;DHT22;69978;50.096;8.448;2023-08-31T09:59:21;19.40;99.90
31387;DHT22;69978;50.096;8.448;2023-08-31T10:01:48;18.90;99.90
31387;DHT22;69978;50.096;8.448;2023-08-31T10:04:14;18.60;99.90
31387;DHT22;69978;50.096;8.448;2023-08-31T10:06:41;18.40;99.90
31387;DHT22;69978;50.096;8.448;2023-08-31T10:09:07;18.20;99.90
31387;DHT22;69978;50.096;8.448;2023-08-31T10:11:35;18.10;99.90
31387;DHT22;69978;50.096;8.448;2023-08-31T10:14:00;18.10;99.90
31387;DHT22;69978;50.096;8.448;2023-08-31T10:16:27;18.10;99.90
31387;DHT22;69978;50.096;8.448;2023-08-31T10:18:54;18.20;99.90
31387;DHT22;69978;50.096;8.448;2023-08-31T10:21:19;18.30;99.90
31387;DHT22;69978;50.096;8.448;2023-08-31T10:23:49;18.40;99.90
31387;DHT22;69978;50.096;8.448;2023-08-31T10:26:29;18.30;99.90
31387;DHT22;69978;50.096;8.448;2023-08-31T10:28:55;18.30;99.90
31387;DHT22;69978;50.096;8.448;2023-08-31T10:31:22;18.20;99.90
31387;DHT22;69978;50.096;8.448;2023-08-31T10:34:02;18.20;99.90
31387;DHT22;69978;50.096;8.448;2023-08-31T10:39:18;18.40;99.90
31387;DHT22;69978;50.096;8.448;2023-08-31T10:41:54;18.50;99.90
31387;DHT22;69978;50.096;8.448;2023-08-31T10:44:24;18.60;99.90
31387;DHT22;69978;50.096;8.448;2023-08-31T10:46:51;18.70;99.90
31387;DHT22;69978;50.096;8.448;2023-08-31T10:49:22;18.80;99.90
31387;DHT22;69978;50.096;8.448;2023-08-31T10:51:55;18.90;99.90
31387;DHT22;69978;50.096;8.448;2023-08-31T10:54:23;18.80;99.90
31387;DHT22;69978;50.096;8.448;2023-08-31T10:59:40;19.20;99.90
31387;DHT22;69978;50.096;8.448;2023-08-31T11:02:06;19.20;99.90
31387;DHT22;69978;50.096;8.448;2023-08-31T11:04:52;19.10;99.90
31387;DHT22;69978;50.096;8.448;2023-08-31T11:07:22;19.00;99.90
31387;DHT22;69978;50.096;8.448;2023-08-31T11:09:48;19.00;99.90
31387;DHT22;69978;50.096;8.448;2023-08-31T11:12:14;19.00;99.90
31387;DHT22;69978;50.096;8.448;2023-08-31T11:14:40;19.00;99.90
31387;DHT22;69978;50.096;8.448;2023-08-31T11:17:06;18.90;99.90
31387;DHT22;69978;50.096;8.448;2023-08-31T11:19:33;18.90;99.90
31387;DHT22;69978;50.096;8.448;2023-08-31T11:22:03;18.90;99.90
31387;DHT22;69978;50.096;8.448;2023-08-31T11:24:30;18.90;99.90
31387;DHT22;69978;50.096;8.448;2023-08-31T11:26:56;18.90;99.90
31387;DHT22;69978;50.096;8.448;2023-08-31T11:29:22;18.90;99.90
31387;DHT22;69978;50.096;8.448;2023-08-31T11:31:47;19.00;99.90
31387;DHT22;69978;50.096;8.448;2023-08-31T11:34:15;19.10;99.90
31387;DHT22;69978;50.096;8.448;2023-08-31T11:36:42;19.10;99.90
31387;DHT22;69978;50.096;8.448;2023-08-31T11:39:12;19.10;99.90
31387;DHT22;69978;50.096;8.448;2023-08-31T11:41:38;19.00;99.90
31387;DHT22;69978;50.096;8.448;2023-08-31T11:44:14;19.00;99.90
31387;DHT22;69978;50.096;8.448;2023-08-31T11:46:44;19.10;99.90
31387;DHT22;69978;50.096;8.448;2023-08-31T11:49:11;19.40;99.90
31387;DHT22;69978;50.096;8.448;2023-08-31T11:51:38;19.80;99.90
31387;DHT22;69978;50.096;8.448;2023-08-31T11:54:04;19.80;99.90
31387;DHT22;69978;50.096;8.448;2023-08-31T11:56:46;20.00;99.90
31387;DHT22;69978;50.096;8.448;2023-08-31T11:59:17;20.10;99.90
31387;DHT22;69978;50.096;8.448;2023-08-31T12:01:45;20.40;99.90
31387;DHT22;69978;50.096;8.448;2023-08-31T12:04:20;20.50;99.90
31387;DHT22;69978;50.096;8.448;2023-08-31T12:06:50;20.70;99.90
31387;DHT22;69978;50.096;8.448;2023-08-31T12:09:16;20.60;99.90
31387;DHT22;69978;50.096;8.448;2023-08-31T12:11:42;20.70;99.90
31387;DHT22;69978;50.096;8.448;2023-08-31T12:14:24;20.70;99.90
31387;DHT22;69978;50.096;8.448;2023-08-31T12:16:51;20.80;99.90
31387;DHT22;69978;50.096;8.448;2023-08-31T12:19:17;21.10;99.90
31387;DHT22;69978;50.096;8.448;2023-08-31T12:21:44;21.40;99.90
31387;DHT22;69978;50.096;8.448;2023-08-31T12:24:11;21.60;99.90
31387;DHT22;69978;50.096;8.448;2023-08-31T12:26:36;21.80;99.90
31387;DHT22;69978;50.096;8.448;2023-08-31T12:29:03;21.60;99.90
31387;DHT22;69978;50.096;8.448;2023-08-31T12:31:30;21.50;99.90
31387;DHT22;69978;50.096;8.448;2023-08-31T12:33:56;21.60;99.90
31387;DHT22;69978;50.096;8.448;2023-08-31T12:36:23;21.70;99.90
31387;DHT22;69978;50.096;8.448;2023-08-31T12:38:49;21.70;99.90
31387;DHT22;69978;50.096;8.448;2023-08-31T12:41:36;21.60;99.90
31387;DHT22;69978;50.096;8.448;2023-08-31T12:44:03;21.60;99.90
31387;DHT22;69978;50.096;8.448;2023-08-31T12:46:29;21.50;99.90
31387;DHT22;69978;50.096;8.448;2023-08-31T12:48:55;21.50;99.90
31387;DHT22;69978;50.096;8.448;2023-08-31T12:51:20;21.40;99.90
31387;DHT22;69978;50.096;8.448;2023-08-31T12:53:46;21.30;99.90
31387;DHT22;69978;50.096;8.448;2023-08-31T12:56:12;21.10;99.90
31387;DHT22;69978;50.096;8.448;2023-08-31T12:58:38;21.10;99.90
31387;DHT22;69978;50.096;8.448;2023-08-31T13:01:04;21.00;99.90
31387;DHT22;69978;50.096;8.448;2023-08-31T13:03:33;20.80;99.90
31387;DHT22;69978;50.096;8.448;2023-08-31T13:05:58;20.70;99.90
31387;DHT22;69978;50.096;8.448;2023-08-31T13:08:24;20.50;99.90
31387;DHT22;69978;50.096;8.448;2023-08-31T13:10:53;20.40;99.90
31387;DHT22;69978;50.096;8.448;2023-08-31T13:13:20;20.60;99.90
31387;DHT22;69978;50.096;8.448;2023-08-31T13:15:46;20.80;99.90
31387;DHT22;69978;50.096;8.448;2023-08-31T13:18:12;21.00;99.90
31387;DHT22;69978;50.096;8.448;2023-08-31T13:20:38;21.30;99.90
31387;DHT22;69978;50.096;8.448;2023-08-31T13:23:03;21.60;99.90
31387;DHT22;69978;50.096;8.448;2023-08-31T13:25:29;21.90;99.90
31387;DHT22;69978;50.096;8.448;2023-08-31T13:27:56;22.20;99.90
31387;DHT22;69978;50.096;8.448;2023-08-31T13:30:22;22.30;99.90
31387;DHT22;69978;50.096;8.448;2023-08-31T13:32:48;22.40;99.90
31387;DHT22;69978;50.096;8.448;2023-08-31T13:35:14;21.90;99.90
31387;DHT22;69978;50.096;8.448;2023-08-31T13:37:39;22.00;99.90
31387;DHT22;69978;50.096;8.448;2023-08-31T13:40:05;22.10;99.90
31387;DHT22;69978;50.096;8.448;2023-08-31T13:42:35;22.20;99.90
31387;DHT22;69978;50.096;8.448;2023-08-31T13:45:07;22.30;99.90
31387;DHT22;69978;50.096;8.448;2023-08-31T13:47:33;22.30;99.90
31387;DHT22;69978;50.096;8.448;2023-08-31T13:49:59;22.20;99.90
31387;DHT22;69978;50.096;8.448;2023-08-31T13:52:24;22.30;99.90
31387;DHT22;69978;50.096;8.448;2023-08-31T13:54:50;22.30;99.90
31387;DHT22;69978;50.096;8.448;2023-08-31T13:57:16;22.10;99.90
31387;DHT22;69978;50.096;8.448;2023-08-31T13:59:43;22.10;99.90
31387;DHT22;69978;50.096;8.448;2023-08-31T14:02:09;22.30;99.90
31387;DHT22;69978;50.096;8.448;2023-08-31T14:04:35;22.40;99.90
31387;DHT22;69978;50.096;8.448;2023-08-31T14:07:01;22.40;99.90
31387;DHT22;69978;50.096;8.448;2023-08-31T14:09:27;22.30;99.90
31387;DHT22;69978;50.096;8.448;2023-08-31T14:11:53;22.30;99.90
31387;DHT22;69978;50.096;8.448;2023-08-31T14:14:20;22.20;99.90
31387;DHT22;69978;50.096;8.448;2023-08-31T14:16:47;22.20;99.90
31387;DHT22;69978;50.096;8.448;2023-08-31T14:19:13;22.20;99.90
31387;DHT22;69978;50.096;8.448;2023-08-31T14:21:39;22.10;99.90
31387;DHT22;69978;50.096;8.448;2023-08-31T14:24:05;22.30;99.90
31387;DHT22;69978;50.096;8.448;2023-08-31T14:26:30;22.30;99.90
31387;DHT22;69978;50.096;8.448;2023-08-31T14:28:56;22.30;99.90
31387;DHT22;69978;50.096;8.448;2023-08-31T14:31:21;22.00;99.90
31387;DHT22;69978;50.096;8.448;2023-08-31T14:33:47;21.90;99.90
31387;DHT22;69978;50.096;8.448;2023-08-31T14:36:15;21.70;99.90
31387;DHT22;69978;50.096;8.448;2023-08-31T14:38:41;21.40;99.90
31387;DHT22;69978;50.096;8.448;2023-08-31T14:41:06;21.30;99.90
31387;DHT22;69978;50.096;8.448;2023-08-31T14:43:33;21.20;99.90
31387;DHT22;69978;50.096;8.448;2023-08-31T14:45:59;21.20;99.90
31387;DHT22;69978;50.096;8.448;2023-08-31T14:48:29;21.00;99.90
31387;DHT22;69978;50.096;8.448;2023-08-31T14:50:55;21.00;99.90
31387;DHT22;69978;50.096;8.448;2023-08-31T14:53:21;21.00;99.90
31387;DHT22;69978;50.096;8.448;2023-08-31T14:55:52;21.10;99.90
31387;DHT22;69978;50.096;8.448;2023-08-31T14:58:18;21.00;99.90
31387;DHT22;69978;50.096;8.448;2023-08-31T15:00:44;21.00;99.90
31387;DHT22;69978;50.096;8.448;2023-08-31T15:03:10;21.00;99.90
31387;DHT22;69978;50.096;8.448;2023-08-31T15:05:36;20.80;99.90
31387;DHT22;69978;50.096;8.448;2023-08-31T15:08:03;20.80;99.90
31387;DHT22;69978;50.096;8.448;2023-08-31T15:10:29;20.80;99.90
31387;DHT22;69978;50.096;8.448;2023-08-31T15:12:55;21.00;99.90
31387;DHT22;69978;50.096;8.448;2023-08-31T15:15:25;21.00;99.90
31387;DHT22;69978;50.096;8.448;2023-08-31T15:17:51;21.00;99.90
31387;DHT22;69978;50.096;8.448;2023-08-31T15:30:05;20.30;99.90
31387;DHT22;69978;50.096;8.448;2023-08-31T15:32:33;20.10;99.90
31387;DHT22;69978;50.096;8.448;2023-08-31T15:34:59;20.10;99.90
31387;DHT22;69978;50.096;8.448;2023-08-31T15:37:24;20.10;99.90
31387;DHT22;69978;50.096;8.448;2023-08-31T15:39:51;20.10;99.90
31387;DHT22;69978;50.096;8.448;2023-08-31T15:42:17;20.20;99.90
31387;DHT22;69978;50.096;8.448;2023-08-31T15:44:43;20.10;99.90
31387;DHT22;69978;50.096;8.448;2023-08-31T15:47:09;20.10;99.90
31387;DHT22;69978;50.096;8.448;2023-08-31T15:49:34;20.10;99.90
31387;DHT22;69978;50.096;8.448;2023-08-31T15:52:01;20.00;99.90
31387;DHT22;69978;50.096;8.448;2023-08-31T15:54:31;20.00;99.90